sensor_id;sensor_type;location;lat;lon;timestamp;temperature;humidity
678;DHT22;321;48.814;9.132;2023-08-17T00:10:06;21.10;99.90
678;DHT22;321;48.814;9.132;2023-08-17T00:32:03;21.20;99.90
678;DHT22;321;48.814;9.132;2023-08-17T00:53:59;21.20;99.90
678;DHT22;321;48.814;9.132;2023-08-17T00:56:26;21.20;99.90
678;DHT22;321;48.814;9.132;2023-08-17T00:58:53;21.20;99.90
678;DHT22;321;48.814;9.132;2023-08-17T01:08:38;21.20;99.90
678;DHT22;321;48.814;9.132;2023-08-17T01:13:44;21.20;99.90
678;DHT22;321;48.814;9.132;2023-08-17T01:16:15;21.30;99.90
678;DHT22;321;48.814;9.132;2023-08-17T01:33:50;21.60;99.90
678;DHT22;321;48.814;9.132;2023-08-17T01:43:40;21.70;99.90
678;DHT22;321;48.814;9.132;2023-08-17T01:46:07;21.70;99.90
678;DHT22;321;48.814;9.132;2023-08-17T03:23:32;22.00;99.90
678;DHT22;321;48.814;9.132;2023-08-17T03:30:55;22.00;99.90
678;DHT22;321;48.814;9.132;2023-08-17T04:00:07;22.10;99.90
678;DHT22;321;48.814;9.132;2023-08-17T05:05:54;22.40;99.90
678;DHT22;321;48.814;9.132;2023-08-17T05:35:15;22.60;99.90
678;DHT22;321;48.814;9.132;2023-08-17T07:11:46;25.40;99.90
678;DHT22;321;48.814;9.132;2023-08-17T07:16:37;25.20;99.90
678;DHT22;321;48.814;9.132;2023-08-17T07:19:03;25.40;99.90
678;DHT22;321;48.814;9.132;2023-08-17T07:21:29;25.20;99.90
678;DHT22;321;48.814;9.132;2023-08-17T07:23:55;25.30;99.90
678;DHT22;321;48.814;9.132;2023-08-17T07:26:21;25.40;99.90
678;DHT22;321;48.814;9.132;2023-08-17T07:28:48;25.60;99.90
678;DHT22;321;48.814;9.132;2023-08-17T07:31:14;26.00;99.90
678;DHT22;321;48.814;9.132;2023-08-17T07:33:39;26.30;99.90
678;DHT22;321;48.814;9.132;2023-08-17T07:36:05;26.30;99.90
678;DHT22;321;48.814;9.132;2023-08-17T07:38:30;26.50;99.90
678;DHT22;321;48.814;9.132;2023-08-17T07:40:56;26.70;99.90
678;DHT22;321;48.814;9.132;2023-08-17T07:43:22;27.30;99.90
678;DHT22;321;48.814;9.132;2023-08-17T07:45:54;28.30;99.90
678;DHT22;321;48.814;9.132;2023-08-17T07:48:20;29.50;99.90
678;DHT22;321;48.814;9.132;2023-08-17T07:50:49;30.60;99.90
678;DHT22;321;48.814;9.132;2023-08-17T07:53:14;31.90;99.90
678;DHT22;321;48.814;9.132;2023-08-17T07:55:40;32.10;99.90
678;DHT22;321;48.814;9.132;2023-08-17T07:58:05;32.60;98.70
678;DHT22;321;48.814;9.132;2023-08-17T08:00:32;33.40;96.80
678;DHT22;321;48.814;9.132;2023-08-17T08:02:57;34.10;98.10
678;DHT22;321;48.814;9.132;2023-08-17T08:05:23;34.70;94.40
678;DHT22;321;48.814;9.132;2023-08-17T08:07:49;35.20;94.10
678;DHT22;321;48.814;9.132;2023-08-17T08:10:15;35.70;91.90
678;DHT22;321;48.814;9.132;2023-08-17T08:12:40;36.10;90.50
678;DHT22;321;48.814;9.132;2023-08-17T08:15:06;36.30;91.20
678;DHT22;321;48.814;9.132;2023-08-17T08:17:32;36.30;90.90
678;DHT22;321;48.814;9.132;2023-08-17T08:19:58;35.70;90.30
678;DHT22;321;48.814;9.132;2023-08-17T08:22:24;35.80;89.20
678;DHT22;321;48.814;9.132;2023-08-17T08:24:50;36.20;89.00
678;DHT22;321;48.814;9.132;2023-08-17T08:27:16;36.50;86.00
678;DHT22;321;48.814;9.132;2023-08-17T08:29:41;36.90;84.10
678;DHT22;321;48.814;9.132;2023-08-17T08:32:07;37.00;82.90
678;DHT22;321;48.814;9.132;2023-08-17T08:34:32;37.20;83.00
678;DHT22;321;48.814;9.132;2023-08-17T08:36:58;37.30;85.50
678;DHT22;321;48.814;9.132;2023-08-17T08:39:25;37.40;81.40
678;DHT22;321;48.814;9.132;2023-08-17T08:41:51;38.10;80.40
678;DHT22;321;48.814;9.132;2023-08-17T08:44:16;38.80;79.50
678;DHT22;321;48.814;9.132;2023-08-17T08:46:44;39.30;74.60
678;DHT22;321;48.814;9.132;2023-08-17T08:49:11;39.60;72.80
678;DHT22;321;48.814;9.132;2023-08-17T08:51:42;38.40;81.10
678;DHT22;321;48.814;9.132;2023-08-17T08:54:12;38.20;72.30
678;DHT22;321;48.814;9.132;2023-08-17T08:56:38;37.00;79.30
678;DHT22;321;48.814;9.132;2023-08-17T08:59:08;37.50;78.80
678;DHT22;321;48.814;9.132;2023-08-17T09:01:34;38.40;73.40
678;DHT22;321;48.814;9.132;2023-08-17T09:04:00;39.10;71.70
678;DHT22;321;48.814;9.132;2023-08-17T09:06:27;39.70;69.30
678;DHT22;321;48.814;9.132;2023-08-17T09:08:54;40.20;67.20
678;DHT22;321;48.814;9.132;2023-08-17T09:11:21;40.50;66.90
678;DHT22;321;48.814;9.132;2023-08-17T09:13:47;40.70;65.10
678;DHT22;321;48.814;9.132;2023-08-17T09:16:13;40.60;63.90
678;DHT22;321;48.814;9.132;2023-08-17T09:18:38;39.30;66.90
678;DHT22;321;48.814;9.132;2023-08-17T09:21:04;39.30;66.90
678;DHT22;321;48.814;9.132;2023-08-17T09:23:30;39.30;67.10
678;DHT22;321;48.814;9.132;2023-08-17T09:25:56;39.40;69.80
678;DHT22;321;48.814;9.132;2023-08-17T09:28:24;39.50;65.90
678;DHT22;321;48.814;9.132;2023-08-17T09:33:16;38.30;69.60
678;DHT22;321;48.814;9.132;2023-08-17T09:35:42;38.40;68.80
678;DHT22;321;48.814;9.132;2023-08-17T09:38:08;38.80;67.70
678;DHT22;321;48.814;9.132;2023-08-17T09:40:34;39.20;67.10
678;DHT22;321;48.814;9.132;2023-08-17T09:42:59;39.30;66.70
678;DHT22;321;48.814;9.132;2023-08-17T09:45:27;38.90;66.60
678;DHT22;321;48.814;9.132;2023-08-17T09:47:53;38.90;67.10
678;DHT22;321;48.814;9.132;2023-08-17T09:50:22;39.40;70.60
678;DHT22;321;48.814;9.132;2023-08-17T09:52:48;39.80;68.20
678;DHT22;321;48.814;9.132;2023-08-17T09:55:18;40.30;67.10
678;DHT22;321;48.814;9.132;2023-08-17T09:57:44;39.60;65.40
678;DHT22;321;48.814;9.132;2023-08-17T10:00:10;40.20;66.40
678;DHT22;321;48.814;9.132;2023-08-17T10:02:36;40.00;65.20
678;DHT22;321;48.814;9.132;2023-08-17T10:05:05;41.10;63.10
678;DHT22;321;48.814;9.132;2023-08-17T10:07:31;41.40;63.40
678;DHT22;321;48.814;9.132;2023-08-17T10:10:06;42.10;59.60
678;DHT22;321;48.814;9.132;2023-08-17T10:12:44;42.10;59.00
